Time;durP1;ratioP1;P1;durP2;ratioP2;P2;SDS_P1;SDS_P2;PMS_P1;PMS_P2;Temp;Humidity;BMP_temperature;BMP_pressure;BME280_temperature;BME280_humidity;BME280_pressure;Samples;Min_cycle;Max_cycle;Signal;HPM_P1;HPM_P2
2023/01/20 00:01:20;;;;;;;24.38;10.32;;;0.60;99.90;;;;;;5030610;28;20263;-85
2023/01/20 00:03:46;;;;;;;33.65;10.13;;;0.60;99.90;;;;;;5030074;28;20031;-85
2023/01/20 00:06:12;;;;;;;18.33;9.95;;;0.60;99.90;;;;;;5026839;28;20021;-84
2023/01/20 00:08:41;;;;;;;30.77;11.02;;;0.60;99.90;;;;;;5034665;28;20030;-84
2023/01/20 00:11:12;;;;;;;28.63;10.20;;;0.50;99.90;;;;;;5033177;28;20369;-85
2023/01/20 00:13:38;;;;;;;26.75;9.60;;;0.60;99.90;;;;;;5026068;28;20113;-85
2023/01/20 00:16:07;;;;;;;32.85;10.55;;;0.70;99.90;;;;;;5033337;28;20026;-84
2023/01/20 00:18:33;;;;;;;26.00;10.10;;;0.70;99.90;;;;;;5027936;28;20037;-85
2023/01/20 00:21:17;;;;;;;24.40;9.90;;;0.70;99.90;;;;;;5037573;28;20793;-85
2023/01/20 00:23:45;;;;;;;30.23;8.85;;;0.70;99.90;;;;;;5030816;28;20390;-85
2023/01/20 00:26:15;;;;;;;26.20;10.25;;;0.60;99.90;;;;;;5037849;28;20083;-85
2023/01/20 00:28:42;;;;;;;32.33;8.80;;;0.70;99.90;;;;;;5030657;28;20037;-85
2023/01/20 00:31:17;;;;;;;21.58;7.85;;;0.70;99.90;;;;;;5026537;28;20052;-84
2023/01/20 00:33:43;;;;;;;28.90;9.35;;;0.70;99.90;;;;;;5035566;28;20456;-85
2023/01/20 00:36:10;;;;;;;28.90;9.57;;;0.70;99.90;;;;;;5025909;28;20036;-84
2023/01/20 00:38:36;;;;;;;41.30;8.75;;;0.70;99.90;;;;;;5022666;28;20463;-85
2023/01/20 00:41:02;;;;;;;24.67;8.27;;;0.70;99.90;;;;;;5026526;28;20120;-85
2023/01/20 00:43:28;;;;;;;27.02;9.10;;;0.80;99.90;;;;;;5027696;28;20025;-84
2023/01/20 00:45:53;;;;;;;32.28;8.60;;;0.70;99.90;;;;;;5039165;28;20111;-85
2023/01/20 00:48:19;;;;;;;25.45;7.78;;;0.80;99.90;;;;;;5034082;28;20137;-84
2023/01/20 00:50:44;;;;;;;25.27;7.13;;;0.70;99.90;;;;;;5042594;28;20052;-85
2023/01/20 00:53:10;;;;;;;22.88;7.65;;;0.80;99.90;;;;;;5030553;28;20033;-84
2023/01/20 00:55:35;;;;;;;27.98;7.50;;;0.80;99.90;;;;;;5036462;28;20025;-85
2023/01/20 00:58:01;;;;;;;23.60;7.45;;;0.80;99.90;;;;;;5034778;28;20103;-86
2023/01/20 01:00:27;;;;;;;20.48;6.70;;;0.80;99.90;;;;;;5030662;28;21779;-85
2023/01/20 01:02:52;;;;;;;18.05;7.95;;;0.80;99.90;;;;;;5037340;28;20061;-84
2023/01/20 01:05:18;;;;;;;17.70;7.40;;;0.80;99.90;;;;;;5033860;28;20033;-85
2023/01/20 01:07:43;;;;;;;20.40;7.72;;;0.80;99.90;;;;;;5034064;28;20462;-86
2023/01/20 01:10:10;;;;;;;18.15;6.63;;;0.80;99.90;;;;;;5030531;28;20074;-85
2023/01/20 01:12:41;;;;;;;20.13;6.85;;;0.80;99.90;;;;;;5031946;28;20025;-85
2023/01/20 01:15:07;;;;;;;27.50;6.68;;;0.80;99.90;;;;;;5021934;28;20122;-86
2023/01/20 01:17:33;;;;;;;20.98;7.13;;;0.80;99.90;;;;;;5031969;28;20033;-84
2023/01/20 01:19:58;;;;;;;29.05;9.05;;;0.80;99.90;;;;;;5040343;28;20032;-85
2023/01/20 01:22:24;;;;;;;14.43;6.53;;;0.80;99.90;;;;;;5031156;28;20028;-84
2023/01/20 01:24:50;;;;;;;20.73;7.65;;;0.90;99.90;;;;;;5020002;28;20117;-84
2023/01/20 01:27:15;;;;;;;18.60;6.47;;;0.80;99.90;;;;;;5033191;28;20025;-85
2023/01/20 01:29:41;;;;;;;18.73;7.05;;;0.90;99.90;;;;;;5034779;28;20033;-84
2023/01/20 01:32:09;;;;;;;22.90;6.97;;;0.90;99.90;;;;;;5030016;28;20029;-84
2023/01/20 01:34:34;;;;;;;19.13;6.88;;;0.90;99.90;;;;;;5036005;28;20029;-84
2023/01/20 01:37:00;;;;;;;20.67;7.72;;;0.90;99.90;;;;;;5030530;28;20493;-85
2023/01/20 01:39:26;;;;;;;19.27;7.00;;;0.90;99.90;;;;;;5032735;28;20512;-86
2023/01/20 01:41:52;;;;;;;25.45;7.75;;;0.90;99.90;;;;;;5041309;28;20143;-84
2023/01/20 01:44:19;;;;;;;20.98;7.38;;;0.90;99.90;;;;;;5033135;28;20101;-84
2023/01/20 01:46:47;;;;;;;18.52;8.20;;;1.00;99.90;;;;;;5033892;28;20048;-85
2023/01/20 01:49:25;;;;;;;26.90;7.68;;;0.90;99.90;;;;;;5028484;28;20533;-84
2023/01/20 01:51:58;;;;;;;30.50;8.27;;;0.90;99.90;;;;;;5035933;28;20120;-84
2023/01/20 01:54:28;;;;;;;23.75;7.65;;;0.90;99.90;;;;;;5028901;28;20052;-85
2023/01/20 01:56:54;;;;;;;25.58;8.30;;;0.90;99.90;;;;;;5028356;28;20053;-84
2023/01/20 01:59:20;;;;;;;19.00;8.02;;;0.90;99.90;;;;;;5027198;28;20044;-84
2023/01/20 02:01:51;;;;;;;25.13;8.27;;;0.80;99.90;;;;;;5033507;28;20024;-84
2023/01/20 02:04:20;;;;;;;17.70;7.93;;;0.80;99.90;;;;;;5028892;28;20025;-84
2023/01/20 02:06:50;;;;;;;20.10;7.85;;;0.80;99.90;;;;;;5039339;28;20028;-84
2023/01/20 02:09:16;;;;;;;25.90;8.82;;;0.80;99.90;;;;;;5031113;28;20067;-84
2023/01/20 02:11:47;;;;;;;27.33;9.30;;;0.90;99.90;;;;;;5033438;28;20470;-84
2023/01/20 02:14:19;;;;;;;26.90;9.05;;;0.90;99.90;;;;;;5027144;28;20517;-84
2023/01/20 02:16:54;;;;;;;16.67;7.15;;;0.90;99.90;;;;;;5035193;28;20036;-84
2023/01/20 02:20:10;;;;;;;15.45;6.47;;;0.90;99.90;;;;;;5024046;28;20072;-85
2023/01/20 02:23:13;;;;;;;30.60;7.95;;;0.80;99.90;;;;;;5019821;28;20039;-85
2023/01/20 02:25:57;;;;;;;26.00;8.35;;;0.80;99.90;;;;;;5030402;28;20082;-84
2023/01/20 02:28:57;;;;;;;21.25;7.82;;;0.80;99.90;;;;;;5030656;28;20539;-84
2023/01/20 02:32:13;;;;;;;27.40;8.32;;;0.80;99.90;;;;;;5026169;28;20061;-85
2023/01/20 02:34:50;;;;;;;24.42;8.32;;;0.70;99.90;;;;;;5010029;28;20037;-84
2023/01/20 02:37:22;;;;;;;17.35;7.45;;;0.80;99.90;;;;;;5035606;28;20444;-85
2023/01/20 02:40:25;;;;;;;21.55;7.80;;;0.80;99.90;;;;;;5038909;28;20124;-85
2023/01/20 02:42:59;;;;;;;18.48;7.40;;;0.70;99.90;;;;;;5040099;28;20018;-84
2023/01/20 02:45:35;;;;;;;25.67;7.97;;;0.80;99.90;;;;;;5042198;28;20108;-85
2023/01/20 02:48:21;;;;;;;19.83;8.45;;;0.80;99.90;;;;;;5033760;28;20173;-85
2023/01/20 02:50:57;;;;;;;21.90;8.18;;;0.80;99.90;;;;;;5032425;28;20038;-84
2023/01/20 02:53:31;;;;;;;25.77;7.80;;;0.80;99.90;;;;;;5030544;28;20033;-85
2023/01/20 02:55:57;;;;;;;21.35;8.00;;;0.70;99.90;;;;;;5034334;28;20102;-85
2023/01/20 02:58:38;;;;;;;18.85;7.97;;;0.70;99.90;;;;;;5029049;28;20033;-85
2023/01/20 03:01:17;;;;;;;12.77;6.13;;;0.70;99.90;;;;;;5021506;28;20083;-84
2023/01/20 03:03:45;;;;;;;17.15;6.55;;;0.80;99.90;;;;;;5037901;28;20116;-84
2023/01/20 03:06:18;;;;;;;18.05;6.85;;;0.80;99.90;;;;;;5033061;28;20030;-85
2023/01/20 03:08:48;;;;;;;27.88;9.27;;;0.80;99.90;;;;;;5036604;28;20060;-85
2023/01/20 03:11:14;;;;;;;19.30;7.32;;;0.80;99.90;;;;;;5034337;28;20378;-84
2023/01/20 03:13:56;;;;;;;26.92;6.80;;;0.80;99.90;;;;;;5036454;28;20128;-85
2023/01/20 03:16:25;;;;;;;18.58;6.78;;;0.80;99.90;;;;;;5037025;28;20063;-84
2023/01/20 03:18:51;;;;;;;21.70;7.80;;;0.80;99.90;;;;;;5033117;28;20492;-84
2023/01/20 03:21:17;;;;;;;18.35;7.82;;;0.80;99.90;;;;;;5041422;28;20028;-84
2023/01/20 03:23:48;;;;;;;22.67;9.02;;;0.80;99.90;;;;;;5037570;28;20055;-85
2023/01/20 03:26:16;;;;;;;24.05;7.07;;;0.90;99.90;;;;;;5032899;28;20435;-84
2023/01/20 03:28:44;;;;;;;23.30;7.50;;;0.90;99.90;;;;;;5040866;28;20032;-84
2023/01/20 03:31:22;;;;;;;27.90;7.75;;;0.90;99.90;;;;;;5034025;28;20021;-85
2023/01/20 03:33:49;;;;;;;18.85;7.05;;;0.80;99.90;;;;;;5037974;28;20462;-84
2023/01/20 03:36:17;;;;;;;16.27;6.45;;;0.90;99.90;;;;;;5038991;28;20076;-84
2023/01/20 03:38:44;;;;;;;38.13;9.65;;;0.80;99.90;;;;;;5023340;28;20321;-85
2023/01/20 03:41:17;;;;;;;14.48;7.22;;;0.90;99.90;;;;;;5038185;28;20025;-84
2023/01/20 03:43:50;;;;;;;20.73;8.20;;;0.80;99.90;;;;;;5028598;28;20596;-86
2023/01/20 03:46:39;;;;;;;17.90;7.05;;;0.80;99.90;;;;;;5030770;28;20021;-84
2023/01/20 03:49:16;;;;;;;20.40;7.57;;;0.80;99.90;;;;;;5030961;28;20106;-85
2023/01/20 03:52:17;;;;;;;20.13;7.68;;;0.80;99.90;;;;;;5027234;28;20033;-85
2023/01/20 03:54:59;;;;;;;17.20;6.93;;;0.80;99.90;;;;;;5025752;28;20041;-84
2023/01/20 03:57:37;;;;;;;34.53;8.15;;;0.80;99.90;;;;;;5034447;28;20041;-85
2023/01/20 04:00:07;;;;;;;16.98;6.45;;;0.80;99.90;;;;;;5036709;28;20064;-85
2023/01/20 04:02:34;;;;;;;20.80;7.88;;;0.80;99.90;;;;;;5030149;28;20045;-85
2023/01/20 04:05:02;;;;;;;21.55;7.63;;;0.80;99.90;;;;;;5044104;28;20149;-85
2023/01/20 04:07:33;;;;;;;23.10;8.20;;;0.70;99.90;;;;;;5035931;28;20078;-84
2023/01/20 04:10:08;;;;;;;23.90;7.85;;;0.70;99.90;;;;;;5033934;28;20029;-83
2023/01/20 04:12:34;;;;;;;26.52;9.02;;;0.70;99.90;;;;;;5035056;28;20037;-84
2023/01/20 04:15:00;;;;;;;26.58;8.02;;;0.70;99.90;;;;;;5037761;28;20033;-83
2023/01/20 04:17:28;;;;;;;24.65;9.40;;;0.70;99.90;;;;;;5032757;28;20312;-86
2023/01/20 04:19:59;;;;;;;20.83;8.15;;;0.60;99.90;;;;;;5033316;28;20025;-84
2023/01/20 04:22:47;;;;;;;19.30;7.40;;;0.60;99.90;;;;;;5033089;28;20080;-86
2023/01/20 04:25:19;;;;;;;19.50;7.43;;;0.60;99.90;;;;;;5025670;28;20427;-83
2023/01/20 04:27:45;;;;;;;31.48;8.15;;;0.60;99.90;;;;;;5031256;28;20482;-84
2023/01/20 04:30:14;;;;;;;16.58;7.38;;;0.60;99.90;;;;;;5036627;28;20029;-84
2023/01/20 04:32:39;;;;;;;24.23;7.72;;;0.60;99.90;;;;;;5036061;28;20040;-84
2023/01/20 04:35:05;;;;;;;27.23;9.30;;;0.60;99.90;;;;;;5037906;28;20478;-86
2023/01/20 04:37:31;;;;;;;21.58;8.00;;;0.60;99.90;;;;;;5024262;28;20064;-85
2023/01/20 04:39:56;;;;;;;20.38;8.25;;;0.60;99.90;;;;;;5034892;28;20079;-86
2023/01/20 04:42:22;;;;;;;20.52;7.20;;;0.60;99.90;;;;;;5025646;28;20052;-86
2023/01/20 04:44:50;;;;;;;17.85;8.13;;;0.60;99.90;;;;;;5037632;28;20022;-84
2023/01/20 04:47:16;;;;;;;18.13;6.80;;;0.60;99.90;;;;;;5030507;28;20025;-84
2023/01/20 04:49:45;;;;;;;23.58;9.20;;;0.60;99.90;;;;;;5030399;28;20048;-85
2023/01/20 04:52:10;;;;;;;20.90;8.85;;;0.60;99.90;;;;;;5031324;28;20481;-85
2023/01/20 04:54:36;;;;;;;32.50;8.05;;;0.60;99.90;;;;;;5036888;28;20044;-84
2023/01/20 04:57:05;;;;;;;22.58;7.60;;;0.60;99.90;;;;;;5033798;28;20053;-85
2023/01/20 04:59:33;;;;;;;17.90;7.93;;;0.60;99.90;;;;;;5033562;28;20327;-85
2023/01/20 05:01:59;;;;;;;21.23;8.25;;;0.60;99.90;;;;;;5038460;28;20113;-84
2023/01/20 05:04:27;;;;;;;21.63;7.47;;;0.50;99.90;;;;;;5038743;28;20108;-85
2023/01/20 05:06:53;;;;;;;18.42;8.60;;;0.60;99.90;;;;;;5042237;28;20024;-85
2023/01/20 05:09:18;;;;;;;21.95;8.85;;;0.50;99.90;;;;;;5031174;28;20363;-85
2023/01/20 05:11:44;;;;;;;19.13;9.05;;;0.50;99.90;;;;;;5028785;28;20025;-85
2023/01/20 05:14:13;;;;;;;29.92;8.98;;;0.50;99.90;;;;;;5037035;28;20037;-84
2023/01/20 05:16:38;;;;;;;22.40;8.30;;;0.50;99.90;;;;;;5027955;28;20028;-84
2023/01/20 05:19:04;;;;;;;19.85;8.23;;;0.50;99.90;;;;;;5034074;28;20037;-84
2023/01/20 05:21:33;;;;;;;23.63;7.78;;;0.60;99.90;;;;;;5034580;28;20033;-84
2023/01/20 05:23:58;;;;;;;19.48;8.52;;;0.50;99.90;;;;;;5028253;28;20037;-85
2023/01/20 05:26:25;;;;;;;22.08;7.57;;;0.40;99.90;;;;;;5027909;28;20048;-84
2023/01/20 05:28:50;;;;;;;18.92;7.70;;;0.50;99.90;;;;;;5030819;28;20052;-85
2023/01/20 05:31:16;;;;;;;28.95;7.57;;;0.50;99.90;;;;;;5034985;28;20049;-85
2023/01/20 05:33:43;;;;;;;19.50;6.13;;;0.40;99.90;;;;;;5037035;28;20112;-84
2023/01/20 05:36:10;;;;;;;20.75;7.75;;;0.50;99.90;;;;;;5028754;28;20025;-84
2023/01/20 05:38:39;;;;;;;18.17;7.13;;;0.40;99.90;;;;;;5030096;28;20052;-85
2023/01/20 05:41:06;;;;;;;24.95;8.10;;;0.50;99.90;;;;;;5036935;28;20028;-83
2023/01/20 05:43:32;;;;;;;16.42;8.75;;;0.40;99.90;;;;;;5020964;28;20041;-84
2023/01/20 05:45:58;;;;;;;19.10;7.57;;;0.40;99.90;;;;;;5034440;28;20398;-85
2023/01/20 05:48:26;;;;;;;15.07;7.53;;;0.30;99.90;;;;;;5022065;28;20032;-84
2023/01/20 05:50:52;;;;;;;32.30;10.20;;;0.30;99.90;;;;;;5036924;28;20040;-84
2023/01/20 05:53:18;;;;;;;26.67;9.35;;;0.40;99.90;;;;;;5034611;28;21422;-84
2023/01/20 05:55:44;;;;;;;39.58;13.60;;;0.40;99.90;;;;;;5037057;28;20025;-83
2023/01/20 05:58:10;;;;;;;33.45;11.55;;;0.30;99.90;;;;;;5026503;28;20045;-83
2023/01/20 06:00:36;;;;;;;27.25;9.85;;;0.30;99.90;;;;;;5035306;28;20075;-84
2023/01/20 06:03:01;;;;;;;34.63;10.88;;;0.30;99.90;;;;;;5036016;28;20043;-84
2023/01/20 06:05:27;;;;;;;29.73;11.23;;;0.30;99.90;;;;;;5029610;28;20329;-84
2023/01/20 06:07:59;;;;;;;16.90;7.85;;;0.30;99.90;;;;;;5028909;28;20040;-84
2023/01/20 06:10:26;;;;;;;18.45;9.50;;;0.30;99.90;;;;;;5024038;28;20036;-84
2023/01/20 06:12:53;;;;;;;20.13;9.82;;;0.30;99.90;;;;;;5031432;28;20025;-84
2023/01/20 06:15:19;;;;;;;13.82;6.63;;;0.20;99.90;;;;;;5033252;28;20044;-84
2023/01/20 06:17:44;;;;;;;15.85;7.72;;;0.20;99.90;;;;;;5032131;28;20029;-84
2023/01/20 06:20:10;;;;;;;17.63;6.85;;;0.20;99.90;;;;;;5031063;28;20029;-84
2023/01/20 06:22:36;;;;;;;10.55;6.03;;;0.20;99.90;;;;;;5036075;28;20036;-84
2023/01/20 06:25:02;;;;;;;18.90;7.22;;;0.20;99.90;;;;;;5033295;28;20084;-83
2023/01/20 06:27:28;;;;;;;18.27;6.75;;;0.20;99.90;;;;;;5035339;28;20053;-84
2023/01/20 06:29:54;;;;;;;17.48;9.43;;;0.20;99.90;;;;;;5034525;28;20056;-84
2023/01/20 06:32:19;;;;;;;74.05;22.73;;;0.20;99.90;;;;;;5033703;28;20516;-84
2023/01/20 06:34:45;;;;;;;40.42;17.90;;;0.20;99.90;;;;;;5037835;28;20468;-84
2023/01/20 06:37:10;;;;;;;54.58;20.70;;;0.20;99.90;;;;;;5028791;28;20040;-84
2023/01/20 06:39:36;;;;;;;46.80;18.85;;;0.10;99.90;;;;;;5030073;28;20046;-83
2023/01/20 06:42:02;;;;;;;54.45;20.83;;;0.10;99.90;;;;;;5036779;28;20025;-84
2023/01/20 06:44:28;;;;;;;42.70;16.02;;;0.10;99.90;;;;;;5035818;28;20033;-84
2023/01/20 06:46:53;;;;;;;23.50;9.00;;;0.10;99.90;;;;;;5035498;28;20037;-84
2023/01/20 06:49:19;;;;;;;24.95;9.55;;;0.10;99.90;;;;;;5033934;28;20021;-83
2023/01/20 06:51:47;;;;;;;28.83;11.18;;;0.00;99.90;;;;;;5034572;28;20379;-83
2023/01/20 06:54:13;;;;;;;21.40;11.30;;;0.00;99.90;;;;;;5044312;28;20029;-84
2023/01/20 06:56:38;;;;;;;27.45;12.05;;;-0.10;99.90;;;;;;5041209;28;20405;-83
2023/01/20 06:59:04;;;;;;;22.55;10.98;;;-0.10;99.90;;;;;;5039671;28;20036;-84
2023/01/20 07:01:30;;;;;;;21.63;9.70;;;-0.20;99.90;;;;;;5043519;28;20112;-83
2023/01/20 07:03:56;;;;;;;25.10;13.07;;;-0.20;99.90;;;;;;5035968;28;20433;-83
2023/01/20 07:06:30;;;;;;;30.13;13.32;;;-0.20;99.90;;;;;;5036674;28;20394;-83
2023/01/20 07:08:57;;;;;;;27.63;11.67;;;-0.30;99.90;;;;;;5032260;28;20037;-84
2023/01/20 07:11:23;;;;;;;23.05;11.32;;;-0.40;99.90;;;;;;5040253;28;20343;-83
2023/01/20 07:13:49;;;;;;;22.92;10.95;;;-0.40;99.90;;;;;;5041984;28;20163;-83
2023/01/20 07:16:16;;;;;;;21.88;10.40;;;-0.50;99.90;;;;;;5042055;28;20079;-83
2023/01/20 07:18:43;;;;;;;17.02;10.13;;;-0.50;99.90;;;;;;5031732;28;20045;-83
2023/01/20 07:21:10;;;;;;;20.23;10.02;;;-0.60;99.90;;;;;;5040162;28;20116;-83
2023/01/20 07:23:36;;;;;;;15.57;9.23;;;-0.60;99.90;;;;;;5035988;28;20030;-83
2023/01/20 07:26:10;;;;;;;18.92;9.75;;;-0.70;99.90;;;;;;5024879;28;20394;-84
2023/01/20 07:28:36;;;;;;;16.30;8.77;;;-0.80;99.90;;;;;;5020966;28;20064;-83
2023/01/20 07:31:08;;;;;;;29.35;9.45;;;-0.90;99.90;;;;;;5031277;28;20029;-83
2023/01/20 07:33:34;;;;;;;19.77;7.70;;;-0.90;99.90;;;;;;5031448;28;20087;-83
2023/01/20 07:36:00;;;;;;;18.67;7.35;;;-1.00;99.90;;;;;;5031724;28;20091;-83
2023/01/20 07:38:26;;;;;;;15.25;7.78;;;-1.00;99.90;;;;;;5039217;28;20053;-84
2023/01/20 07:40:52;;;;;;;17.25;8.48;;;-1.00;99.90;;;;;;5040079;28;20033;-83
2023/01/20 07:43:18;;;;;;;13.20;7.18;;;-1.00;99.90;;;;;;5026877;28;20417;-83
2023/01/20 07:45:43;;;;;;;10.52;6.80;;;-1.00;99.90;;;;;;5032193;28;20033;-83
2023/01/20 07:48:09;;;;;;;12.23;6.57;;;-1.00;99.90;;;;;;5037412;28;20025;-83
2023/01/20 07:50:35;;;;;;;14.38;6.93;;;-1.00;99.90;;;;;;5032300;28;20061;-83
2023/01/20 07:53:01;;;;;;;17.15;9.10;;;-1.00;99.90;;;;;;5027288;28;20017;-83
2023/01/20 07:55:27;;;;;;;16.27;8.40;;;-0.90;99.90;;;;;;5029131;28;20029;-83
2023/01/20 07:57:53;;;;;;;21.17;9.05;;;-0.80;99.90;;;;;;5038848;28;20103;-84
2023/01/20 08:00:19;;;;;;;25.67;8.60;;;-0.70;99.90;;;;;;5032714;28;20037;-83
2023/01/20 08:02:45;;;;;;;19.25;8.68;;;-0.50;99.90;;;;;;5043872;28;20086;-83
2023/01/20 08:05:10;;;;;;;23.27;8.63;;;-0.40;99.90;;;;;;5023916;28;20760;-84
2023/01/20 08:07:39;;;;;;;22.05;9.07;;;-0.30;99.90;;;;;;5034986;28;20086;-83
2023/01/20 08:10:05;;;;;;;23.73;8.57;;;-0.20;99.90;;;;;;5024340;28;20030;-84
2023/01/20 08:12:30;;;;;;;17.95;8.20;;;0.00;99.90;;;;;;5036826;28;20075;-83
2023/01/20 08:14:56;;;;;;;20.95;8.00;;;0.20;99.90;;;;;;5037353;28;20056;-84
2023/01/20 08:17:22;;;;;;;23.67;8.63;;;0.30;99.90;;;;;;5029981;28;20497;-83
2023/01/20 08:19:47;;;;;;;20.10;8.82;;;0.40;99.90;;;;;;5031490;28;20767;-83
2023/01/20 08:22:13;;;;;;;15.70;8.02;;;0.50;99.90;;;;;;5030421;28;20112;-84
2023/01/20 08:24:39;;;;;;;28.52;8.70;;;0.50;99.90;;;;;;5032342;28;20577;-85
2023/01/20 08:27:04;;;;;;;24.58;8.68;;;0.60;99.90;;;;;;5029699;28;20021;-83
2023/01/20 08:29:32;;;;;;;21.67;10.02;;;0.60;99.90;;;;;;5033657;28;20033;-83
2023/01/20 08:31:59;;;;;;;22.05;8.90;;;0.70;99.90;;;;;;5029617;28;20026;-83
2023/01/20 08:34:25;;;;;;;20.52;8.32;;;0.70;99.90;;;;;;5038896;28;20026;-84
2023/01/20 08:36:52;;;;;;;17.10;8.45;;;0.70;99.90;;;;;;5032688;28;20130;-84
2023/01/20 08:39:19;;;;;;;18.58;9.27;;;0.80;99.90;;;;;;5033913;28;20048;-83
2023/01/20 08:41:47;;;;;;;21.08;7.95;;;0.70;99.90;;;;;;5025520;28;20033;-83
2023/01/20 08:44:14;;;;;;;22.48;9.57;;;0.70;99.90;;;;;;5037862;28;20036;-84
2023/01/20 08:46:40;;;;;;;22.73;7.60;;;0.70;99.90;;;;;;5028224;28;20478;-83
2023/01/20 08:49:12;;;;;;;18.05;8.10;;;0.80;99.90;;;;;;5031754;28;20031;-83
2023/01/20 08:51:38;;;;;;;16.77;7.38;;;0.80;99.90;;;;;;5035234;28;20025;-83
2023/01/20 08:54:03;;;;;;;28.58;9.82;;;0.90;99.90;;;;;;5036605;28;20406;-83
2023/01/20 08:56:29;;;;;;;19.45;7.93;;;0.90;99.90;;;;;;5036143;28;20055;-83
2023/01/20 08:58:57;;;;;;;47.63;20.77;;;0.90;99.90;;;;;;5040193;28;20094;-83
2023/01/20 09:01:28;;;;;;;277.55;71.85;;;1.00;99.90;;;;;;5033188;28;20021;-86
2023/01/20 09:03:54;;;;;;;419.92;105.05;;;1.00;99.90;;;;;;5039428;28;20033;-83
2023/01/20 09:06:20;;;;;;;57.55;19.27;;;1.00;99.90;;;;;;5034547;28;20041;-83
2023/01/20 09:08:50;;;;;;;22.10;9.50;;;1.00;99.90;;;;;;5032399;28;20091;-83
2023/01/20 09:11:18;;;;;;;18.45;9.30;;;1.00;99.90;;;;;;5030872;28;20363;-83
2023/01/20 09:13:44;;;;;;;18.48;10.07;;;1.00;99.90;;;;;;5027995;28;20029;-83
2023/01/20 09:16:15;;;;;;;17.63;8.80;;;1.00;99.90;;;;;;5034784;28;20029;-83
2023/01/20 09:18:40;;;;;;;22.88;10.57;;;1.00;99.90;;;;;;5033243;28;20052;-83
2023/01/20 09:21:06;;;;;;;16.35;8.27;;;0.90;99.90;;;;;;5037968;28;20021;-84
2023/01/20 09:23:34;;;;;;;25.17;9.93;;;0.90;99.90;;;;;;5037244;28;20032;-83
2023/01/20 09:26:01;;;;;;;16.42;9.02;;;0.90;99.90;;;;;;5042464;28;20123;-83
2023/01/20 09:28:27;;;;;;;18.30;8.73;;;0.90;99.90;;;;;;5046540;28;20488;-83
2023/01/20 09:31:03;;;;;;;17.73;8.75;;;0.80;99.90;;;;;;5039748;28;20478;-83
2023/01/20 09:33:28;;;;;;;16.08;7.88;;;0.80;99.90;;;;;;5038149;28;20027;-86
2023/01/20 09:35:55;;;;;;;19.92;8.73;;;0.80;99.90;;;;;;5034147;28;20029;-83
2023/01/20 09:44:33;;;;;;;19.40;9.35;;;0.70;99.90;;;;;;5040900;28;20517;-83
2023/01/20 09:47:23;;;;;;;17.75;9.95;;;0.80;99.90;;;;;;5020821;28;20037;-83
2023/01/20 09:53:14;;;;;;;26.23;11.18;;;1.00;99.90;;;;;;5031542;28;20098;-84
2023/01/20 09:56:00;;;;;;;28.50;12.77;;;1.00;99.90;;;;;;5024092;28;20374;-84
2023/01/20 09:58:32;;;;;;;21.55;10.38;;;1.10;99.90;;;;;;5036391;28;20037;-84
2023/01/20 10:01:12;;;;;;;28.98;12.23;;;1.20;99.90;;;;;;5034277;28;20363;-83
2023/01/20 10:03:48;;;;;;;32.33;12.10;;;1.20;99.90;;;;;;5040499;28;20048;-83
2023/01/20 10:06:40;;;;;;;20.77;9.18;;;1.20;99.90;;;;;;5028108;28;20485;-83
2023/01/20 10:09:16;;;;;;;25.83;11.13;;;1.20;99.90;;;;;;5032433;28;20034;-83
2023/01/20 10:11:45;;;;;;;18.17;9.48;;;1.20;99.90;;;;;;5037723;28;20120;-84
2023/01/20 10:14:14;;;;;;;19.30;8.88;;;1.30;99.90;;;;;;5035977;28;20028;-84
2023/01/20 10:17:34;;;;;;;17.75;9.55;;;1.30;99.90;;;;;;5034271;28;20026;-84
2023/01/20 10:20:54;;;;;;;19.80;9.93;;;1.50;99.90;;;;;;5027155;28;20045;-85
2023/01/20 10:23:28;;;;;;;20.90;8.43;;;1.50;99.90;;;;;;5030547;28;20025;-84
2023/01/20 10:26:19;;;;;;;16.15;8.05;;;1.50;99.90;;;;;;5038791;28;20505;-84
2023/01/20 10:29:08;;;;;;;20.73;8.68;;;1.50;99.90;;;;;;5021177;28;20573;-84
2023/01/20 10:31:57;;;;;;;19.08;8.45;;;1.50;99.90;;;;;;5037148;28;20037;-83
2023/01/20 10:34:26;;;;;;;22.67;9.55;;;1.60;99.90;;;;;;5028561;28;20040;-84
2023/01/20 10:37:03;;;;;;;21.58;9.00;;;1.60;99.90;;;;;;5037549;28;20025;-84
2023/01/20 10:40:11;;;;;;;17.88;8.73;;;1.60;99.90;;;;;;5044785;28;20041;-84
2023/01/20 10:42:36;;;;;;;18.05;8.35;;;1.60;99.90;;;;;;5036759;28;20029;-85
2023/01/20 10:45:02;;;;;;;19.77;8.80;;;1.70;99.90;;;;;;5023712;28;20033;-84
2023/01/20 10:47:49;;;;;;;22.65;8.80;;;1.80;99.90;;;;;;5039899;28;20033;-84
2023/01/20 10:50:33;;;;;;;18.33;8.65;;;1.80;99.90;;;;;;5040575;28;20363;-84
2023/01/20 10:53:08;;;;;;;17.35;8.85;;;1.90;99.90;;;;;;5035535;28;20032;-84
2023/01/20 10:56:12;;;;;;;16.98;8.00;;;1.80;99.90;;;;;;5051665;28;20029;-84
2023/01/20 10:58:43;;;;;;;18.08;9.63;;;1.90;99.90;;;;;;5048844;28;20103;-84
2023/01/20 11:01:15;;;;;;;16.35;8.07;;;2.00;99.90;;;;;;5040683;28;20075;-83
2023/01/20 11:03:44;;;;;;;20.75;9.80;;;1.90;99.90;;;;;;5040502;28;20039;-84
2023/01/20 11:06:19;;;;;;;18.38;8.13;;;1.90;99.90;;;;;;5047151;28;20025;-83
2023/01/20 11:08:47;;;;;;;17.42;8.43;;;1.90;99.90;;;;;;5049304;28;20047;-84
2023/01/20 11:11:21;;;;;;;14.75;8.02;;;1.90;99.90;;;;;;5040419;28;20029;-84
2023/01/20 11:13:50;;;;;;;16.17;7.50;;;1.80;99.90;;;;;;5049083;28;20034;-84
2023/01/20 11:16:23;;;;;;;18.10;8.85;;;1.80;99.90;;;;;;5049133;28;20100;-83
2023/01/20 11:19:03;;;;;;;13.70;7.50;;;1.70;99.90;;;;;;5039272;28;20051;-84
2023/01/20 11:21:35;;;;;;;16.75;9.02;;;1.80;99.90;;;;;;5050046;28;20667;-84
2023/01/20 11:24:20;;;;;;;13.25;7.30;;;1.70;99.90;;;;;;5051290;28;20045;-84
2023/01/20 11:26:49;;;;;;;13.70;8.32;;;1.70;99.90;;;;;;5046199;28;20021;-84
2023/01/20 11:29:14;;;;;;;16.55;8.30;;;1.70;99.90;;;;;;5045408;28;20029;-84
2023/01/20 11:31:44;;;;;;;18.05;10.50;;;1.80;99.90;;;;;;5047023;28;20371;-84
2023/01/20 11:34:29;;;;;;;20.92;11.85;;;1.80;99.90;;;;;;5050629;28;20025;-83
2023/01/20 11:37:04;;;;;;;25.02;13.25;;;1.80;99.90;;;;;;5042128;28;20028;-84
2023/01/20 11:39:54;;;;;;;27.70;12.07;;;1.80;99.90;;;;;;5049525;28;20051;-84
2023/01/20 11:42:24;;;;;;;21.35;12.23;;;1.80;99.90;;;;;;5041052;28;20052;-83
2023/01/20 11:44:54;;;;;;;21.67;11.27;;;1.80;99.90;;;;;;5038252;28;20120;-84
2023/01/20 11:47:35;;;;;;;28.00;12.73;;;1.80;99.90;;;;;;5038405;28;20060;-83
2023/01/20 11:50:07;;;;;;;32.90;15.18;;;1.80;99.90;;;;;;5033628;28;20040;-84
2023/01/20 11:52:33;;;;;;;35.38;15.82;;;1.80;99.90;;;;;;5024080;28;20033;-83
2023/01/20 11:55:11;;;;;;;33.85;15.15;;;1.80;99.90;;;;;;5034548;28;20112;-83
2023/01/20 11:57:49;;;;;;;24.48;13.75;;;1.80;99.90;;;;;;5036662;28;20509;-85
2023/01/20 12:00:37;;;;;;;29.33;13.80;;;1.80;99.90;;;;;;5038926;28;20353;-83
2023/01/20 12:03:09;;;;;;;26.85;13.68;;;1.80;99.90;;;;;;5022397;28;20488;-83
2023/01/20 12:05:50;;;;;;;24.88;12.75;;;1.80;99.90;;;;;;5032746;28;20498;-84
2023/01/20 12:08:45;;;;;;;20.25;11.23;;;1.80;99.90;;;;;;5029329;28;20021;-83
2023/01/20 12:11:17;;;;;;;22.63;12.00;;;1.80;99.90;;;;;;5033275;28;20788;-84
2023/01/20 12:14:19;;;;;;;20.08;10.68;;;1.70;99.90;;;;;;5039948;28;20405;-84
2023/01/20 12:17:07;;;;;;;23.92;11.82;;;1.70;99.90;;;;;;5035532;28;20026;-83
2023/01/20 12:19:57;;;;;;;26.10;13.02;;;1.70;99.90;;;;;;5022985;28;20055;-83
2023/01/20 12:22:40;;;;;;;28.10;14.10;;;1.70;99.90;;;;;;5036801;28;20493;-84
2023/01/20 12:25:13;;;;;;;27.10;13.20;;;1.70;99.90;;;;;;5034447;28;20486;-83
2023/01/20 12:27:53;;;;;;;23.38;13.07;;;1.70;99.90;;;;;;5035520;28;20055;-84
2023/01/20 12:30:40;;;;;;;21.55;12.13;;;1.70;99.90;;;;;;5027837;28;20548;-84
2023/01/20 12:33:19;;;;;;;19.65;10.98;;;1.70;99.90;;;;;;5026829;28;20373;-83
2023/01/20 12:36:02;;;;;;;23.05;12.32;;;1.70;99.90;;;;;;5036131;28;20029;-83
2023/01/20 12:38:32;;;;;;;22.50;11.93;;;1.80;99.90;;;;;;5036668;28;20087;-83
2023/01/20 12:41:02;;;;;;;27.23;13.10;;;1.70;99.90;;;;;;5029907;28;20094;-84
2023/01/20 12:43:42;;;;;;;21.80;11.63;;;1.70;99.90;;;;;;5027549;28;20030;-84
2023/01/20 12:46:23;;;;;;;20.42;11.27;;;1.70;99.90;;;;;;5027352;28;20022;-84
2023/01/20 12:49:13;;;;;;;18.27;11.32;;;1.60;99.90;;;;;;5036440;28;20029;-83
2023/01/20 12:52:00;;;;;;;17.23;10.18;;;1.60;99.90;;;;;;5032354;28;20025;-84
2023/01/20 12:54:40;;;;;;;23.27;12.55;;;1.60;99.90;;;;;;5062777;28;20055;-83
2023/01/20 12:57:24;;;;;;;18.10;10.15;;;1.50;99.90;;;;;;5043092;28;20049;-83
2023/01/20 13:00:08;;;;;;;17.75;10.75;;;1.50;99.90;;;;;;5029711;28;20068;-83
2023/01/20 13:03:09;;;;;;;20.08;10.35;;;1.40;99.90;;;;;;5028167;28;20033;-84
2023/01/20 13:05:56;;;;;;;15.77;10.65;;;1.40;99.90;;;;;;5034123;28;20036;-83
2023/01/20 13:08:35;;;;;;;19.23;10.70;;;1.30;99.90;;;;;;5033452;28;20040;-83
2023/01/20 13:11:26;;;;;;;18.55;11.18;;;1.30;99.90;;;;;;5031192;28;20034;-83
2023/01/20 13:14:07;;;;;;;20.65;12.10;;;1.30;99.90;;;;;;5024146;28;20029;-83
2023/01/20 13:17:03;;;;;;;18.77;10.93;;;1.20;99.90;;;;;;5035899;28;20386;-83